• Join FlightAware (Why Join?)
  • Login
  • US Flag 
05:42PM EDT


 

Airport Tracker/Info


-or-


 

Live Flight TrackerFlight Track Log ✈ SWA286 ✈ 12-Apr-2013 ✈ KBWI - KRSW

Flight Track Log - Related Links

Times and Time Zones

All times are in EDT time to prevent confusion due to time zone crossing. See the SWA286 flight status page for this flight to view local times or setup timezone preferences in your user account.

Time Position Orientation Groundspeed Altitude Reporting Facility
EDT Latitude Longitude Course Direction KTS MPH feet Rate Location/Type
05:25PM 39.0833 -76.6000 153° Southeast 223 257 4,300  Level Potomac TRACON
05:26PM 39.0333 -76.5333 134° Southeast 256 295 6,600 3,120 Climbing Potomac TRACON
05:27PM 38.9833 -76.4667 134° Southeast 304 350 10,300 2,880 Climbing Potomac TRACON
05:28PM 38.8833 -76.4333 165° South 334 384 12,700 1,320 Climbing Potomac TRACON
05:30PM 38.6032 -76.9363 180° South  Level Estimated
05:30PM 38.7619 -76.5128 207° Southwest 319 367 14,000  Level Washington Center
05:31PM 38.6925 -76.5811 218° Southwest 318 366 14,300 1,260 Climbing Washington Center
05:32PM 38.5986 -76.5983 188° South 318 366 16,600 2,520 Climbing Washington Center
05:33PM 38.4942 -76.6078 184° South 351 404 19,400 2,580 Climbing Washington Center
05:34PM 38.3836 -76.6167 184° South 382 440 21,800 1,800 Climbing Washington Center
05:35PM 38.2667 -76.6206 181° South 410 472 23,000 1,200 Climbing Washington Center
05:36PM 38.1519 -76.6294 183° South 421 484 24,200 1,500 Climbing Washington Center
05:37PM 38.0372 -76.6411 185° South 421 484 26,000 1,920 Climbing Washington Center
05:38PM 37.9206 -76.6394 179° South 421 484 28,100 2,040 Climbing Washington Center
05:39PM 37.7997 -76.6247 175° South 421 484 30,100 1,920 Climbing Washington Center
05:40PM 37.6831 -76.6072 173° South 421 484 32,000 1,800 Climbing Washington Center
05:41PM 37.5642 -76.5928 174° South 426 490 33,700 1,620 Climbing Washington Center
05:42PM 37.4456 -76.5781 174° South 426 490 35,300 1,320 Climbing Washington Center
05:43PM 37.3183 -76.5606 174° South 426 490 36,400 1,140 Climbing Washington Center
05:44PM 37.1975 -76.5436 174° South 426 490 37,600 780 Climbing Washington Center
05:45PM 37.0786 -76.5317 175° South 432 497 38,000 180 Climbing Washington Center
05:46PM 36.9739 -76.5772 199° South 403 464 38,000  Level Washington Center
05:47PM 36.8733 -76.6306 203° Southwest 403 464 38,000  Level Washington Center
05:48PM 36.7686 -76.6808 201° Southwest 403 464 38,000  Level Washington Center
05:49PM 36.6786 -76.7314 204° Southwest 408 470 38,000  Level Washington Center
05:50PM 36.5736 -76.7842 202° Southwest 408 470 38,000  Level Washington Center
05:51PM 36.4689 -76.8369 202° Southwest 408 470 38,000  Level Washington Center
05:52PM 36.3661 -76.8869 201° Southwest 403 464 38,000  Level Washington Center
05:53PM 36.2633 -76.9367 201° Southwest 403 464 38,000  Level Washington Center
05:54PM 36.1606 -76.9889 202° Southwest 403 464 38,000  Level Washington Center
05:55PM 36.0556 -77.0411 202° Southwest 398 458 38,000  Level Washington Center
05:56PM 35.9547 -77.0906 202° Southwest 398 458 38,000  Level Washington Center
05:57PM 35.8561 -77.1400 202° Southwest 392 451 38,000  Level Washington Center
05:58PM 35.7553 -77.1917 203° Southwest 392 451 38,000  Level Washington Center
05:59PM 35.6544 -77.2433 203° Southwest 392 451 38,000  Level Washington Center
06:00PM 35.5514 -77.2922 201° Southwest 397 457 38,000  Level Washington Center
06:01PM 35.4506 -77.3411 202° Southwest 397 457 38,000  Level Washington Center
06:02PM 35.3519 -77.3875 201° Southwest 397 457 38,000  Level Washington Center
06:03PM 35.2489 -77.4386 202° Southwest 397 457 38,000  Level Washington Center
06:04PM 35.1478 -77.4894 202° Southwest 397 457 38,000  Level Washington Center
06:05PM 35.0511 -77.5356 201° Southwest 391 450 38,000  Level Washington Center
06:06PM 34.9481 -77.5864 202° Southwest 396 456 38,000  Level Washington Center
06:07PM 34.8411 -77.6242 196° South 396 456 38,000  Level Washington Center
06:08PM 34.7319 -77.6619 196° South 386 444 38,000  Level Washington Center
06:09PM 34.6311 -77.6997 197° South 386 444 38,000  Level Washington Center
06:10PM 34.5283 -77.7297 194° South 386 444 38,000  Level Washington Center
06:11PM 34.4256 -77.7625 195° South 381 438 38,000 420 Level Washington Center
06:13PM 34.1878 -77.8369 195° South 377 434 39,500 540 Climbing Jacksonville Center
06:14PM 34.0889 -77.8703 196° South 382 440 40,000 240 Climbing Jacksonville Center
06:15PM 33.9858 -77.9014 194° South 382 440 40,000  Level Jacksonville Center
06:16PM 33.8831 -77.9347 195° South 377 434 40,000  Level Jacksonville Center
06:17PM 33.7778 -77.9681 195° South 383 441 40,000  Level Jacksonville Center
06:18PM 33.6644 -78.0044 195° South 383 441 40,000  Level Jacksonville Center
06:19PM 33.5633 -78.0347 194° South 383 441 40,000  Level Jacksonville Center
06:20PM 33.4603 -78.0653 194° South 383 441 40,000  Level Jacksonville Center
06:21PM 33.3592 -78.0983 195° South 383 441 40,000 -180 Level Jacksonville Center
06:22PM 33.2561 -78.1311 195° South 383 441 39,700 -900 Descending Jacksonville Center
06:23PM 33.1553 -78.1639 195° South 383 441 38,300 -900 Descending Jacksonville Center
06:24PM 33.0519 -78.1964 195° South 383 441 38,000 -180 Descending Jacksonville Center
06:25PM 32.9508 -78.2264 194° South 383 441 38,000  Level Jacksonville Center
06:26PM 32.8456 -78.2592 195° South 383 441 38,000  Level Jacksonville Center
06:27PM 32.7447 -78.2914 195° South 383 441 38,000  Level Jacksonville Center
06:28PM 32.6414 -78.3264 196° South 383 441 38,000  Level Jacksonville Center
06:29PM 32.5403 -78.3536 193° South 383 441 38,000  Level Jacksonville Center
06:30PM 32.4369 -78.3858 195° South 388 447 38,000  Level Jacksonville Center
06:31PM 32.3461 -78.4150 195° South 388 447 38,000  Level Jacksonville Center
06:32PM 32.2431 -78.4494 196° South 388 447 38,000  Level Jacksonville Center
06:33PM 32.1378 -78.4792 193° South 388 447 38,000  Level Jacksonville Center
06:34PM 32.0344 -78.5133 196° South 388 447 38,000  Level Jacksonville Center
06:35PM 31.9269 -78.5456 194° South 395 455 38,000  Level Jacksonville Center
06:36PM 31.8197 -78.5797 195° South 395 455 38,000  Level Jacksonville Center
06:37PM 31.7164 -78.6092 194° South 395 455 38,000  Level Jacksonville Center
06:38PM 31.6089 -78.6408 194° South 400 460 38,000  Level Jacksonville Center
06:39PM 31.5033 -78.6700 193° South 400 460 38,000  Level Jacksonville Center
06:40PM 31.3939 -78.7092 197° South 400 460 38,000  Level Jacksonville Center
06:41PM 31.2825 -78.7433 195° South 400 460 38,000  Level Jacksonville Center
06:42PM 31.1747 -78.7697 192° South 400 460 38,000  Level Jacksonville Center
06:43PM 31.0631 -78.8064 196° South 405 466 38,000  Level Jacksonville Center
06:44PM 30.9453 -78.8428 195° South 408 470 38,000  Level Jacksonville Center
06:45PM 30.8314 -78.8744 193° South 414 476 38,000  Level Jacksonville Center
06:46PM 30.7261 -78.9078 195° South 409 471 38,000  Level Jacksonville Center
06:47PM 30.6206 -78.9386 194° South 410 472 38,000  Level Jacksonville Center
06:48PM 30.5442 -78.9600 194° South 409 471 38,000  Level Miami Center
06:49PM 30.4394 -78.9917 195° South 394 453 38,000  Level Miami Center
06:50PM 30.3283 -79.0375 200° South 407 468 38,000  Level Miami Center
06:51PM 30.2214 -79.0833 200° South 413 475 38,000  Level Miami Center
06:52PM 30.1164 -79.1292 201° Southwest 408 470 38,000  Level Miami Center
06:53PM 30.0114 -79.1725 200° South 413 475 38,000  Level Miami Center
06:54PM 29.9147 -79.2231 204° Southwest 413 475 38,000  Level Miami Center
06:55PM 29.8075 -79.2686 200° South 413 475 38,000  Level Miami Center
06:56PM 29.7006 -79.3139 200° South 413 475 38,000  Level Miami Center
06:57PM 29.5892 -79.3567 198° South 413 475 38,000  Level Miami Center
06:58PM 29.4842 -79.4044 202° Southwest 413 475 38,000  Level Miami Center
06:59PM 29.3808 -79.4544 203° Southwest 413 475 38,000  Level Miami Center
07:00PM 29.2736 -79.4994 200° South 413 475 38,000  Level Miami Center
07:01PM 29.1686 -79.5444 201° Southwest 413 475 38,000  Level Miami Center
07:02PM 29.0614 -79.5892 200° South 413 475 38,000  Level Miami Center
07:03PM 28.9539 -79.6389 202° Southwest 413 475 38,000  Level Miami Center
07:04PM 28.8508 -79.6883 203° Southwest 413 475 38,000 -720 Level Miami Center
07:05PM 28.7842 -79.7883 233° Southwest 394 453 36,600 -1,620 Descending Miami Center
07:06PM 28.7194 -79.8886 234° Southwest 389 448 34,800 -3,060 Descending Miami Center
07:07PM 28.6500 -80.0097 237° Southwest 416 479 30,500 -3,600 Descending Miami Center
07:08PM 28.5911 -80.1261 240° Southwest 426 490 27,700 -2,580 Descending Miami Center
07:09PM 28.5367 -80.2239 238° Southwest 421 484 25,400 -1,860 Descending Miami Center
07:10PM 28.4839 -80.3331 241° Southwest 401 461 24,000 -1,020 Descending Miami Center
07:11PM 28.4394 -80.4453 246° West 371 427 23,400 -780 Descending Miami Center
07:12PM 28.3972 -80.5475 245° Southwest 362 417 22,500 -1,080 Descending Miami Center
07:13PM 28.3547 -80.6547 246° West 362 417 21,300 -1,260 Descending Miami Center
07:14PM 28.3103 -80.7569 244° Southwest 367 422 20,000 -660 Descending Miami Center
07:15PM 28.2722 -80.8569 247° West 367 422 20,000  Level Miami Center
07:16PM 28.2317 -80.9617 246° West 362 417 20,000  Level Miami Center
07:17PM 28.1892 -81.0614 244° Southwest 356 410 20,000  Level Miami Center
07:18PM 28.1222 -81.1342 224° Southwest 347 399 20,000  Level Miami Center
07:19PM 28.0233 -81.1656 196° South 347 399 20,000  Level Miami Center
07:20PM 27.9264 -81.1972 196° South 356 410 20,000 -240 Level Miami Center
07:21PM 27.8208 -81.2331 197° South 381 438 19,600 -720 Descending Miami Center
07:22PM 27.7239 -81.2622 195° South 381 438 18,600 -1,620 Descending Miami Center
07:23PM 27.6314 -81.2892 194° South 364 419 16,400 -2,460 Descending Miami Center
07:24PM 27.5322 -81.3203 196° South 364 419 13,700 -2,460 Descending Miami Center
07:25PM 27.4417 -81.3472 195° South 364 419 11,500 -1,680 Descending Miami Center
07:26PM 27.3406 -81.3783 195° South 351 404 10,400 -780 Descending Miami Center
07:27PM 27.2583 -81.4056 196° South 338 389 10,000 -240 Descending Miami Center
07:28PM 27.1844 -81.4283 195° South 319 367 10,000  Level Miami Center
07:29PM 27.0939 -81.4575 196° South 324 373 10,000  Level Miami Center
07:30PM 27.0178 -81.4800 195° South 314 361 10,000  Level Miami Center
07:31PM 26.9322 -81.4814 181° South 286 329 10,000 -300 Level Miami Center
07:32PM 26.8547 -81.4897 185° South 281 323 9,500 -1,140 Descending Miami Center
07:33PM 26.7775 -81.4939 183° South 281 323 7,800 -1,800 Descending Miami Center
07:34PM 26.7106 -81.4981 183° South 275 316 6,000 -1,860 Descending Miami Center
07:35PM 26.6592 -81.5378 215° Southwest 228 262 4,100 -1,680 Descending Miami Center
07:36PM 26.6275 -81.6133 245° Southwest 240 276 2,700 -1,020 Descending Miami Center
07:37PM 26.6008 -81.6564 235° Southwest 219 252 2,100 -600 Descending Miami Center
07:39PM 26.5333 -81.7500 318° Northwest  Level FlightAware Approximate
07:46PM 26.5362 -81.7552 318° Northwest  Level Estimated
07:47PM 26.5333 -81.7500 318° Northwest  Level FlightAware Approximate
07:48PM 26.5362 -81.7552 318° Northwest  Level Estimated
07:49PM 26.5333 -81.7500 318° Northwest  Level FlightAware Approximate